createdAt,value
2023-02-15T00:00:50.276Z,33.40
2023-02-15T00:05:57.580Z,29.60
2023-02-15T00:08:29.911Z,29.10
2023-02-15T00:11:12.260Z,28.73
2023-02-15T00:13:43.824Z,28.87
2023-02-15T00:16:15.930Z,27.93
2023-02-15T00:18:48.214Z,28.52
2023-02-15T00:21:20.499Z,28.70
2023-02-15T00:23:54.333Z,30.00
2023-02-15T00:26:28.837Z,30.88
2023-02-15T00:29:03.408Z,29.25
2023-02-15T00:31:36.429Z,31.52
2023-02-15T00:34:14.693Z,30.20
2023-02-15T00:36:49.001Z,31.82
2023-02-15T00:39:23.076Z,31.33
2023-02-15T00:41:55.390Z,33.33
2023-02-15T00:44:29.299Z,33.38
2023-02-15T00:47:01.263Z,34.18
2023-02-15T00:49:39.931Z,32.60
2023-02-15T00:52:14.430Z,32.38
2023-02-15T00:54:48.844Z,33.70
2023-02-15T00:57:21.001Z,35.48
2023-02-15T00:59:54.806Z,37.63
2023-02-15T01:02:27.226Z,37.90
2023-02-15T01:04:59.856Z,38.90
2023-02-15T01:07:36.920Z,37.65
2023-02-15T01:10:09.879Z,37.95
2023-02-15T01:12:41.686Z,37.65
2023-02-15T01:15:14.943Z,37.90
2023-02-15T01:17:48.509Z,41.90
2023-02-15T01:20:26.381Z,38.33
2023-02-15T01:22:59.483Z,37.05
2023-02-15T01:25:31.388Z,38.40
2023-02-15T01:28:05.501Z,37.17
2023-02-15T01:30:37.375Z,37.58
2023-02-15T01:33:11.740Z,36.05
2023-02-15T01:35:46.001Z,38.45
2023-02-15T01:38:38.431Z,38.83
2023-02-15T01:41:25.449Z,38.40
2023-02-15T01:44:03.589Z,36.73
2023-02-15T01:46:39.907Z,36.95
2023-02-15T01:49:20.077Z,34.15
2023-02-15T01:51:54.411Z,34.55
2023-02-15T01:54:32.940Z,36.48
2023-02-15T01:57:08.952Z,36.80
2023-02-15T01:59:42.862Z,36.90
2023-02-15T02:02:18.113Z,36.17
2023-02-15T02:04:55.278Z,35.88
2023-02-15T02:07:34.016Z,34.60
2023-02-15T02:10:07.621Z,38.85
2023-02-15T02:12:42.540Z,35.77
2023-02-15T02:15:15.533Z,37.30
2023-02-15T02:17:57.583Z,37.83
2023-02-15T02:20:59.449Z,38.25
2023-02-15T02:23:55.933Z,39.88
2023-02-15T02:26:49.969Z,34.78
2023-02-15T02:29:28.330Z,34.45
2023-02-15T02:32:36.851Z,35.85
2023-02-15T02:35:32.784Z,35.45
2023-02-15T02:38:09.039Z,36.70
2023-02-15T02:40:59.064Z,37.33
2023-02-15T02:43:39.992Z,38.58
2023-02-15T02:46:18.723Z,40.12
2023-02-15T02:48:53.196Z,41.00
2023-02-15T02:51:26.173Z,45.15
2023-02-15T02:54:03.117Z,42.15
2023-02-15T02:56:39.908Z,42.25
2023-02-15T02:59:27.222Z,40.17
2023-02-15T03:02:02.972Z,37.23
2023-02-15T03:04:36.739Z,37.25
2023-02-15T03:07:12.377Z,34.20
2023-02-15T03:09:50.436Z,34.63
2023-02-15T03:12:25.547Z,33.85
2023-02-15T03:15:00.994Z,34.30
2023-02-15T03:17:38.125Z,34.53
2023-02-15T03:20:16.249Z,35.30
2023-02-15T03:22:55.794Z,34.55
2023-02-15T03:25:44.705Z,34.83
2023-02-15T03:28:21.261Z,36.45
2023-02-15T03:30:54.787Z,35.05
2023-02-15T03:33:28.204Z,33.92
2023-02-15T03:36:20.203Z,38.85
2023-02-15T03:39:02.548Z,39.13
2023-02-15T03:41:36.490Z,30.65
2023-02-15T03:44:21.579Z,36.38
2023-02-15T03:46:57.704Z,37.23
2023-02-15T03:49:31.279Z,37.80
2023-02-15T03:52:03.553Z,40.00
2023-02-15T03:54:47.584Z,38.02
2023-02-15T03:57:46.502Z,38.83
2023-02-15T04:00:37.970Z,38.00
2023-02-15T04:03:26.416Z,40.12
2023-02-15T04:05:57.032Z,40.05
2023-02-15T04:08:29.220Z,37.53
2023-02-15T04:10:59.832Z,36.73
2023-02-15T04:13:36.676Z,35.40
2023-02-15T04:16:08.601Z,36.20
2023-02-15T04:18:59.696Z,37.48
2023-02-15T04:21:50.365Z,39.75
2023-02-15T04:24:39.092Z,40.55
2023-02-15T04:27:10.078Z,41.35
2023-02-15T04:29:40.610Z,41.92
2023-02-15T04:32:11.224Z,42.55
2023-02-15T04:34:41.898Z,42.23
2023-02-15T04:37:12.595Z,43.98
2023-02-15T04:39:43.242Z,41.65
2023-02-15T04:42:13.809Z,42.15
2023-02-15T04:44:44.807Z,41.70
2023-02-15T04:47:15.441Z,42.62
2023-02-15T04:49:46.206Z,40.17
2023-02-15T04:52:18.797Z,39.88
2023-02-15T04:54:49.428Z,40.30
2023-02-15T04:57:19.983Z,41.20
2023-02-15T04:59:50.579Z,38.53
2023-02-15T05:02:21.600Z,38.98
2023-02-15T05:04:52.272Z,36.33
2023-02-15T05:07:22.848Z,38.98
2023-02-15T05:09:54.061Z,41.08
2023-02-15T05:12:24.700Z,40.73
2023-02-15T05:14:56.665Z,49.00
2023-02-15T05:17:27.308Z,46.53
2023-02-15T05:19:57.941Z,49.38
2023-02-15T05:22:28.564Z,43.98
2023-02-15T05:25:17.044Z,48.73
2023-02-15T05:28:05.893Z,52.20
2023-02-15T05:30:37.317Z,50.90
2023-02-15T05:33:09.841Z,54.93
2023-02-15T05:35:40.542Z,66.82
2023-02-15T05:38:11.301Z,58.75
2023-02-15T05:40:42.108Z,84.40
2023-02-15T05:43:12.690Z,110.22
2023-02-15T05:45:44.749Z,125.92
2023-02-15T05:48:15.387Z,113.83
2023-02-15T05:50:46.705Z,117.75
2023-02-15T05:53:17.323Z,98.30
2023-02-15T05:55:47.913Z,80.00
2023-02-15T05:58:18.534Z,73.55
2023-02-15T06:00:49.486Z,75.85
2023-02-15T06:03:20.085Z,113.47
2023-02-15T06:05:50.788Z,115.47
2023-02-15T06:08:21.768Z,84.85
2023-02-15T06:10:53.568Z,62.35
2023-02-15T06:13:24.122Z,50.17
2023-02-15T06:15:55.570Z,47.50
2023-02-15T06:18:27.737Z,60.65
2023-02-15T06:20:58.377Z,53.15
2023-02-15T06:23:29.142Z,51.18
2023-02-15T06:25:59.853Z,45.78
2023-02-15T06:28:30.757Z,43.68
2023-02-15T06:31:01.528Z,46.45
2023-02-15T06:33:34.109Z,48.15
2023-02-15T06:36:05.212Z,46.75
2023-02-15T06:38:36.035Z,55.63
2023-02-15T06:41:06.634Z,63.73
2023-02-15T06:43:37.570Z,53.20
2023-02-15T06:46:08.857Z,39.13
2023-02-15T06:48:39.504Z,35.45
2023-02-15T06:51:10.308Z,32.38
2023-02-15T06:53:42.452Z,29.65
2023-02-15T06:56:14.270Z,28.75
2023-02-15T06:58:47.105Z,37.80
2023-02-15T07:01:18.435Z,34.33
2023-02-15T07:03:49.007Z,31.37
2023-02-15T07:06:19.766Z,28.70
2023-02-15T07:08:50.568Z,28.67
2023-02-15T07:11:39.324Z,29.32
2023-02-15T07:14:09.896Z,33.60
2023-02-15T07:16:40.710Z,28.12
2023-02-15T07:19:11.661Z,26.50
2023-02-15T07:21:42.284Z,27.15
2023-02-15T07:24:18.901Z,27.48
2023-02-15T07:26:49.523Z,26.02
2023-02-15T07:29:20.340Z,26.05
2023-02-15T07:31:51.082Z,26.37
2023-02-15T07:34:21.759Z,25.32
2023-02-15T07:36:55.274Z,25.60
2023-02-15T07:39:26.338Z,24.63
2023-02-15T07:41:57.290Z,26.57
2023-02-15T07:44:27.848Z,29.82
2023-02-15T07:47:00.843Z,29.12
2023-02-15T07:49:31.958Z,26.17
2023-02-15T07:52:04.646Z,26.97
2023-02-15T07:54:35.304Z,24.90
2023-02-15T07:57:06.373Z,26.52
2023-02-15T07:59:36.900Z,24.65
2023-02-15T08:02:12.160Z,25.17
2023-02-15T08:04:43.049Z,25.65
2023-02-15T08:07:14.667Z,27.48
2023-02-15T08:09:45.220Z,28.57
2023-02-15T08:12:16.563Z,29.10
2023-02-15T08:14:47.696Z,30.52
2023-02-15T08:17:18.284Z,28.87
2023-02-15T08:19:48.983Z,29.52
2023-02-15T08:22:19.541Z,29.10
2023-02-15T08:24:50.293Z,31.02
2023-02-15T08:27:23.309Z,31.97
2023-02-15T08:29:55.183Z,35.85
2023-02-15T08:32:27.200Z,37.00
2023-02-15T08:34:58.012Z,36.88
2023-02-15T08:37:28.939Z,36.80
2023-02-15T08:39:59.545Z,37.23
2023-02-15T08:42:30.216Z,36.88
2023-02-15T08:45:00.826Z,38.02
2023-02-15T08:47:31.513Z,36.55
2023-02-15T08:50:02.116Z,34.23
2023-02-15T08:52:44.893Z,33.65
2023-02-15T08:55:12.176Z,34.73
2023-02-15T08:57:44.415Z,34.03
2023-02-15T09:00:16.012Z,33.63
2023-02-15T09:02:46.574Z,32.58
2023-02-15T09:05:17.365Z,31.23
2023-02-15T09:07:50.272Z,31.27
2023-02-15T09:10:23.746Z,31.52
2023-02-15T09:12:55.909Z,32.05
2023-02-15T09:15:29.091Z,29.15
2023-02-15T09:18:03.726Z,30.90
2023-02-15T09:20:40.239Z,32.58
2023-02-15T09:25:45.910Z,34.95
2023-02-15T09:28:20.880Z,34.45
2023-02-15T09:30:54.508Z,33.78
2023-02-15T09:33:38.012Z,35.00
2023-02-15T09:36:19.012Z,36.48
2023-02-15T09:38:54.400Z,36.75
2023-02-15T09:41:46.376Z,36.88
2023-02-15T09:44:34.758Z,36.75
2023-02-15T09:47:18.626Z,35.80
2023-02-15T09:50:06.653Z,34.92
2023-02-15T09:52:59.788Z,35.50
2023-02-15T09:55:38.761Z,37.05
2023-02-15T09:58:42.917Z,36.17
2023-02-15T10:01:28.611Z,37.20
2023-02-15T10:04:22.881Z,36.98
2023-02-15T10:07:27.418Z,36.00
2023-02-15T10:10:08.909Z,35.65
2023-02-15T10:12:51.032Z,38.50
2023-02-15T10:15:32.187Z,39.27
2023-02-15T10:18:15.753Z,38.85
2023-02-15T10:21:05.584Z,40.08
2023-02-15T10:24:00.935Z,42.78
2023-02-15T10:26:47.880Z,43.30
2023-02-15T10:29:43.868Z,42.73
2023-02-15T10:32:28.223Z,44.35
2023-02-15T10:35:18.485Z,44.77
2023-02-15T10:37:56.313Z,42.65
2023-02-15T10:40:33.213Z,45.00
2023-02-15T10:43:10.889Z,37.38
2023-02-15T10:46:04.016Z,44.23
2023-02-15T10:48:54.743Z,44.10
2023-02-15T10:51:31.334Z,44.25
2023-02-15T10:54:15.908Z,44.77
2023-02-15T10:56:50.304Z,49.03
2023-02-15T10:59:39.933Z,44.00
2023-02-15T11:02:19.960Z,44.95
2023-02-15T11:05:28.525Z,45.28
2023-02-15T11:08:02.688Z,44.93
2023-02-15T11:10:44.503Z,44.90
2023-02-15T11:13:24.272Z,45.52
2023-02-15T11:16:05.298Z,44.10
2023-02-15T11:19:01.297Z,45.12
2023-02-15T11:21:39.306Z,49.55
2023-02-15T11:24:22.509Z,44.00
2023-02-15T11:27:06.647Z,42.30
2023-02-15T11:29:51.654Z,43.63
2023-02-15T11:32:36.748Z,43.35
2023-02-15T11:35:15.387Z,43.58
2023-02-15T11:37:52.627Z,41.98
2023-02-15T11:40:56.217Z,43.83
2023-02-15T11:44:04.275Z,44.13
2023-02-15T11:46:36.460Z,44.40
2023-02-15T11:49:37.230Z,47.00
2023-02-15T11:52:12.522Z,49.08
2023-02-15T11:54:55.355Z,44.08
2023-02-15T11:57:34.112Z,41.85
2023-02-15T12:00:16.164Z,44.93
2023-02-15T12:02:54.660Z,45.63
2023-02-15T12:05:28.315Z,42.98
2023-02-15T12:08:09.638Z,42.45
2023-02-15T12:10:45.731Z,42.13
2023-02-15T12:13:24.365Z,42.90
2023-02-15T12:16:01.763Z,39.55
2023-02-15T12:18:48.400Z,42.25
2023-02-15T12:21:37.832Z,42.03
2023-02-15T12:24:31.972Z,45.98
2023-02-15T12:27:27.527Z,47.13
2023-02-15T12:30:12.395Z,57.62
2023-02-15T12:33:04.568Z,46.02
2023-02-15T12:35:41.049Z,42.50
2023-02-15T12:38:15.529Z,46.10
2023-02-15T12:41:03.992Z,44.55
2023-02-15T12:43:40.639Z,43.45
2023-02-15T12:46:27.779Z,52.05
2023-02-15T12:49:21.764Z,44.03
2023-02-15T12:51:59.423Z,42.67
2023-02-15T12:54:43.465Z,42.25
2023-02-15T12:57:32.691Z,42.80
2023-02-15T13:00:07.968Z,43.40
2023-02-15T13:02:50.980Z,44.40
2023-02-15T13:05:39.681Z,42.50
2023-02-15T13:08:17.290Z,42.78
2023-02-15T13:11:11.903Z,41.20
2023-02-15T13:14:03.134Z,43.42
2023-02-15T13:16:38.812Z,42.15
2023-02-15T13:19:21.758Z,41.88
2023-02-15T13:21:57.522Z,44.27
2023-02-15T13:24:39.299Z,41.65
2023-02-15T13:27:19.440Z,45.05
2023-02-15T13:30:02.259Z,43.38
2023-02-15T13:32:38.738Z,42.55
2023-02-15T13:35:19.120Z,42.88
2023-02-15T13:38:23.253Z,42.73
2023-02-15T13:40:58.482Z,42.40
2023-02-15T13:43:49.209Z,41.05
2023-02-15T13:46:36.867Z,45.58
2023-02-15T13:49:35.862Z,44.58
2023-02-15T13:52:16.300Z,42.58
2023-02-15T13:58:12.283Z,49.30
2023-02-15T14:01:02.679Z,43.10
2023-02-15T14:03:49.143Z,41.60
2023-02-15T14:06:44.751Z,40.30
2023-02-15T14:09:53.576Z,42.13
2023-02-15T14:12:47.035Z,40.30
2023-02-15T14:15:31.965Z,44.95
2023-02-15T14:18:37.912Z,45.88
2023-02-15T14:21:16.625Z,48.40
2023-02-15T14:24:12.559Z,43.92
2023-02-15T14:26:56.003Z,42.50
2023-02-15T14:29:57.815Z,42.00
2023-02-15T14:32:37.258Z,44.80
2023-02-15T14:35:18.016Z,41.95
2023-02-15T14:38:05.310Z,43.10
2023-02-15T14:41:04.485Z,45.28
2023-02-15T14:43:54.882Z,42.98
2023-02-15T14:46:38.687Z,42.60
2023-02-15T14:49:32.097Z,45.63
2023-02-15T14:52:09.813Z,44.93
2023-02-15T14:54:46.471Z,49.40
2023-02-15T14:57:21.206Z,43.30
2023-02-15T15:00:02.698Z,50.43
2023-02-15T15:02:54.555Z,50.38
2023-02-15T15:05:37.973Z,49.85
2023-02-15T15:08:15.647Z,51.48
2023-02-15T15:10:52.626Z,51.40
2023-02-15T15:13:38.851Z,54.30
2023-02-15T15:16:29.748Z,54.48
2023-02-15T15:19:01.524Z,51.73
2023-02-15T15:21:54.630Z,54.00
2023-02-15T15:24:43.479Z,55.25
2023-02-15T15:27:44.354Z,52.98
2023-02-15T15:30:26.844Z,57.88
2023-02-15T15:33:00.624Z,58.13
2023-02-15T15:35:34.098Z,64.45
2023-02-15T15:38:33.693Z,61.23
2023-02-15T15:41:22.317Z,64.82
2023-02-15T15:44:01.695Z,65.55
2023-02-15T15:46:47.230Z,69.70
2023-02-15T15:51:52.673Z,70.87
2023-02-15T15:54:26.242Z,67.60
2023-02-15T15:57:01.266Z,68.65
2023-02-15T15:59:36.777Z,66.35
2023-02-15T16:02:09.639Z,62.35
2023-02-15T16:04:40.193Z,66.70
2023-02-15T16:07:22.286Z,63.68
2023-02-15T16:10:05.195Z,60.48
2023-02-15T16:12:41.509Z,62.00
2023-02-15T16:15:21.251Z,65.22
2023-02-15T16:17:56.107Z,68.83
2023-02-15T16:20:35.568Z,88.67
2023-02-15T16:23:24.473Z,85.80
2023-02-15T16:25:59.295Z,77.10
2023-02-15T16:28:31.366Z,69.65
2023-02-15T16:31:16.563Z,65.20
2023-02-15T16:33:47.809Z,64.47
2023-02-15T16:36:26.621Z,61.75
2023-02-15T16:39:03.201Z,66.77
2023-02-15T16:41:33.877Z,64.55
2023-02-15T16:44:07.335Z,65.78
2023-02-15T16:46:42.197Z,62.70
2023-02-15T16:49:27.656Z,64.85
2023-02-15T16:52:09.865Z,58.50
2023-02-15T16:54:41.924Z,64.45
2023-02-15T16:57:24.587Z,63.95
2023-02-15T16:59:59.758Z,61.08
2023-02-15T17:02:54.344Z,65.52
2023-02-15T17:05:19.640Z,67.95
2023-02-15T17:08:08.399Z,80.85
2023-02-15T17:10:42.981Z,79.82
2023-02-15T17:13:15.811Z,75.07
2023-02-15T17:16:04.986Z,73.30
2023-02-15T17:18:44.724Z,76.10
2023-02-15T17:21:20.910Z,77.42
2023-02-15T17:23:53.956Z,74.47
2023-02-15T17:26:27.423Z,73.72
2023-02-15T17:29:01.327Z,71.05
2023-02-15T17:31:35.196Z,75.95
2023-02-15T17:34:06.234Z,68.20
2023-02-15T17:36:36.855Z,70.00
2023-02-15T17:39:12.231Z,67.97
2023-02-15T17:44:15.588Z,72.82
2023-02-15T17:46:46.433Z,65.47
2023-02-15T17:49:19.978Z,66.15
2023-02-15T17:51:50.556Z,66.60
2023-02-15T17:54:38.877Z,65.05
2023-02-15T17:57:14.865Z,67.75
2023-02-15T18:00:04.634Z,70.08
2023-02-15T18:02:55.138Z,69.95
2023-02-15T18:05:44.904Z,65.95
2023-02-15T18:08:36.410Z,65.00
2023-02-15T18:11:25.253Z,66.40
2023-02-15T18:13:57.389Z,67.15
2023-02-15T18:16:33.525Z,66.30
2023-02-15T18:19:06.357Z,65.87
2023-02-15T18:21:36.957Z,63.90
2023-02-15T18:24:09.269Z,65.30
2023-02-15T18:26:40.551Z,68.15
2023-02-15T18:29:11.638Z,67.95
2023-02-15T18:31:43.384Z,67.12
2023-02-15T18:34:25.533Z,66.37
2023-02-15T18:36:57.393Z,69.67
2023-02-15T18:39:44.601Z,69.65
2023-02-15T18:42:24.605Z,76.65
2023-02-15T18:44:57.693Z,72.62
2023-02-15T18:47:28.737Z,75.72
2023-02-15T18:49:59.524Z,79.67
2023-02-15T18:52:33.032Z,81.57
2023-02-15T18:55:08.303Z,87.47
2023-02-15T18:57:38.897Z,85.50
2023-02-15T19:00:17.897Z,86.00
2023-02-15T19:02:49.318Z,86.63
2023-02-15T19:05:20.211Z,76.50
2023-02-15T19:07:51.999Z,101.90
2023-02-15T19:10:28.916Z,119.00
2023-02-15T19:12:59.876Z,83.55
2023-02-15T19:15:32.850Z,74.42
2023-02-15T19:18:03.443Z,73.17
2023-02-15T19:20:36.969Z,74.10
2023-02-15T19:23:20.919Z,82.10
2023-02-15T19:25:52.967Z,81.50
2023-02-15T19:28:32.698Z,73.55
2023-02-15T19:31:03.432Z,72.78
2023-02-15T19:33:34.806Z,73.57
2023-02-15T19:36:07.593Z,73.17
2023-02-15T19:38:38.164Z,74.10
2023-02-15T19:41:12.064Z,74.00
2023-02-15T19:43:42.763Z,75.57
2023-02-15T19:46:16.317Z,77.80
2023-02-15T19:48:48.904Z,70.92
2023-02-15T19:51:21.023Z,73.83
2023-02-15T19:53:52.010Z,70.32
2023-02-15T19:56:24.581Z,66.28
2023-02-15T19:58:59.491Z,71.40
2023-02-15T20:01:31.225Z,68.72
2023-02-15T20:04:03.326Z,78.92
2023-02-15T20:06:35.610Z,76.95
2023-02-15T20:09:06.759Z,83.42
2023-02-15T20:11:37.565Z,79.87
2023-02-15T20:14:11.176Z,80.50
2023-02-15T20:16:41.789Z,78.07
2023-02-15T20:19:13.482Z,74.58
2023-02-15T20:21:46.809Z,76.82
2023-02-15T20:24:21.361Z,74.27
2023-02-15T20:26:52.061Z,69.77
2023-02-15T20:29:24.265Z,78.20
2023-02-15T20:31:55.605Z,76.10
2023-02-15T20:34:27.706Z,73.45
2023-02-15T20:36:59.009Z,73.40
2023-02-15T20:39:29.587Z,69.32
2023-02-15T20:42:00.249Z,73.22
2023-02-15T20:44:34.692Z,76.57
2023-02-15T20:47:05.272Z,57.20
2023-02-15T20:49:38.230Z,79.30
2023-02-15T20:52:12.276Z,70.83
2023-02-15T20:54:43.392Z,72.42
2023-02-15T20:57:14.972Z,69.55
2023-02-15T20:59:46.278Z,74.07
2023-02-15T21:02:24.061Z,77.12
2023-02-15T21:04:56.018Z,72.75
2023-02-15T21:07:27.774Z,77.78
2023-02-15T21:10:00.774Z,76.90
2023-02-15T21:12:31.885Z,77.55
2023-02-15T21:15:02.529Z,84.83
2023-02-15T21:17:33.325Z,120.90
2023-02-15T21:20:04.190Z,148.50
2023-02-15T21:22:35.052Z,166.70
2023-02-15T21:25:06.104Z,185.45
2023-02-15T21:27:38.144Z,187.95
2023-02-15T21:30:18.755Z,170.47
2023-02-15T21:32:49.505Z,124.25
2023-02-15T21:35:25.158Z,102.35
2023-02-15T21:37:57.368Z,85.30
2023-02-15T21:40:31.579Z,87.08
2023-02-15T21:43:20.325Z,86.55
2023-02-15T21:46:09.306Z,79.35
2023-02-15T21:48:40.756Z,81.87
2023-02-15T21:51:30.005Z,89.85
2023-02-15T21:54:00.615Z,101.40
2023-02-15T21:56:32.872Z,122.62
2023-02-15T21:59:03.542Z,131.18
2023-02-15T22:01:34.452Z,120.85
2023-02-15T22:04:07.126Z,101.05
2023-02-15T22:06:39.377Z,89.00
2023-02-15T22:09:18.892Z,92.37
2023-02-15T22:11:52.378Z,90.90
2023-02-15T22:14:44.651Z,101.07
2023-02-15T22:17:21.504Z,98.65
2023-02-15T22:19:53.198Z,91.02
2023-02-15T22:22:26.258Z,95.42
2023-02-15T22:24:58.996Z,92.78
2023-02-15T22:27:33.004Z,107.37
2023-02-15T22:30:04.441Z,92.10
2023-02-15T22:32:36.910Z,72.60
2023-02-15T22:35:11.652Z,75.85
2023-02-15T22:37:42.446Z,75.45
2023-02-15T22:40:16.163Z,77.35
2023-02-15T22:42:52.179Z,81.10
2023-02-15T22:45:25.678Z,89.17
2023-02-15T22:48:01.669Z,97.45
2023-02-15T22:50:38.297Z,107.75
2023-02-15T22:53:11.513Z,108.37
2023-02-15T22:55:42.097Z,114.72
2023-02-15T22:58:24.248Z,115.52
2023-02-15T23:00:58.603Z,122.15
2023-02-15T23:03:31.606Z,113.65
2023-02-15T23:06:02.463Z,106.75
2023-02-15T23:08:33.774Z,103.90
2023-02-15T23:11:04.810Z,116.80
2023-02-15T23:13:35.730Z,117.67
2023-02-15T23:16:08.904Z,112.92
2023-02-15T23:18:46.778Z,88.90
2023-02-15T23:21:29.245Z,78.60
2023-02-15T23:24:02.864Z,83.55
2023-02-15T23:26:33.863Z,102.32
2023-02-15T23:29:04.989Z,98.75
2023-02-15T23:31:38.789Z,91.25
2023-02-15T23:34:21.226Z,94.37
2023-02-15T23:36:52.419Z,119.57
2023-02-15T23:39:43.669Z,112.75
2023-02-15T23:42:17.228Z,105.45
2023-02-15T23:44:50.762Z,116.57
2023-02-15T23:47:48.720Z,183.25
2023-02-15T23:50:24.616Z,141.53
2023-02-15T23:52:56.831Z,141.35
2023-02-15T23:55:31.572Z,104.07
2023-02-15T23:58:05.607Z,96.42
